Time;durP1;ratioP1;P1;durP2;ratioP2;P2;SDS_P1;SDS_P2;PMS_P1;PMS_P2;Temp;Humidity;BMP_temperature;BMP_pressure;BME280_temperature;BME280_humidity;BME280_pressure;Samples;Min_cycle;Max_cycle;Signal;HPM_P1;HPM_P2
2023/04/02 00:01:52;;;;;;;;;;;5.30;99.90;;;;;;5135403;27;20362;-48
2023/04/02 00:04:22;;;;;;;;;;;5.30;99.90;;;;;;5135481;27;19914;-50
2023/04/02 00:07:09;;;;;;;;;;;5.30;99.90;;;;;;5136278;27;20365;-48
2023/04/02 00:09:37;;;;;;;;;;;5.30;99.90;;;;;;5124600;27;20064;-49
2023/04/02 00:12:14;;;;;;;;;;;5.30;99.90;;;;;;5136260;27;20327;-50
2023/04/02 00:14:44;;;;;;;;;;;5.30;99.90;;;;;;5135259;27;19913;-49
2023/04/02 00:17:09;;;;;;;;;;;5.30;99.90;;;;;;5135146;27;19911;-50
2023/04/02 00:19:44;;;;;;;;;;;5.30;99.90;;;;;;5136038;27;20387;-48
2023/04/02 00:22:16;;;;;;;;;;;5.20;99.90;;;;;;5135787;27;20365;-48
2023/04/02 00:24:41;;;;;;;;;;;5.20;99.90;;;;;;5134991;27;20362;-48
2023/04/02 00:27:11;;;;;;;;;;;5.20;99.90;;;;;;5135597;27;19918;-50
2023/04/02 00:29:44;;;;;;;;;;;5.20;99.90;;;;;;5135678;27;19957;-47
2023/04/02 00:32:14;;;;;;;;;;;5.20;99.90;;;;;;5134959;27;19911;-50
2023/04/02 00:34:40;;;;;;;;;;;5.20;99.90;;;;;;5135884;27;19953;-48
2023/04/02 00:37:05;;;;;;;;;;;5.10;99.90;;;;;;5145634;27;19918;-50
2023/04/02 00:39:37;;;;;;;;;;;5.10;99.90;;;;;;5146631;27;19915;-49
2023/04/02 00:42:05;;;;;;;;;;;5.10;99.90;;;;;;5138931;27;19907;-49
2023/04/02 00:44:33;;;;;;;;;;;5.00;99.90;;;;;;5155617;27;20285;-47
2023/04/02 00:47:03;;;;;;;;;;;5.00;99.90;;;;;;5155040;27;19977;-49
2023/04/02 00:49:33;;;;;;;;;;;4.90;99.90;;;;;;5136479;27;19915;-51
2023/04/02 00:52:05;;;;;;;;;;;5.00;99.90;;;;;;5134438;27;19907;-47
2023/04/02 00:54:32;;;;;;;;;;;4.90;99.90;;;;;;5135162;27;19923;-48
2023/04/02 00:56:58;;;;;;;;;;;4.90;99.90;;;;;;5135010;27;19918;-51
2023/04/02 00:59:46;;;;;;;;;;;4.90;99.90;;;;;;5134566;27;19908;-49
2023/04/02 01:02:16;;;;;;;;;;;4.80;99.90;;;;;;5134842;27;20354;-48
2023/04/02 01:04:50;;;;;;;;;;;4.70;99.90;;;;;;5135005;27;19964;-49
2023/04/02 01:07:16;;;;;;;;;;;4.70;99.90;;;;;;5133975;27;19960;-52
2023/04/02 01:09:52;;;;;;;;;;;4.70;99.90;;;;;;5135231;27;19924;-51
2023/04/02 01:12:17;;;;;;;;;;;4.60;99.90;;;;;;5134850;27;19951;-49
2023/04/02 01:15:02;;;;;;;;;;;4.50;99.90;;;;;;5134000;27;20340;-49
2023/04/02 01:17:34;;;;;;;;;;;4.40;99.90;;;;;;5134963;27;19914;-49
2023/04/02 01:20:21;;;;;;;;;;;4.30;99.90;;;;;;5134072;27;19935;-49
2023/04/02 01:23:05;;;;;;;;;;;4.20;99.90;;;;;;5092886;27;19908;-49
2023/04/02 01:25:39;;;;;;;;;;;4.10;99.90;;;;;;5134593;27;20392;-49
2023/04/02 01:28:23;;;;;;;;;;;4.00;99.90;;;;;;5133806;27;19915;-49
2023/04/02 01:30:51;;;;;;;;;;;4.00;99.90;;;;;;5134628;27;19908;-50
2023/04/02 01:33:19;;;;;;;;;;;3.90;99.90;;;;;;5139509;27;19911;-49
2023/04/02 01:35:47;;;;;;;;;;;3.70;99.90;;;;;;5154231;27;19946;-48
2023/04/02 01:38:17;;;;;;;;;;;3.70;99.90;;;;;;5155122;27;19907;-50
2023/04/02 01:40:50;;;;;;;;;;;3.60;99.90;;;;;;5155136;27;19907;-52
2023/04/02 01:43:22;;;;;;;;;;;3.60;99.90;;;;;;5153661;27;20380;-50
2023/04/02 01:45:48;;;;;;;;;;;3.50;99.90;;;;;;5155041;27;20044;-48
2023/04/02 01:48:18;;;;;;;;;;;3.50;99.90;;;;;;5154007;27;20002;-49
2023/04/02 01:50:46;;;;;;;;;;;3.40;99.90;;;;;;5152961;27;19918;-47
2023/04/02 01:53:13;;;;;;;;;;;3.40;99.90;;;;;;5154226;27;20390;-49
2023/04/02 01:55:44;;;;;;;;;;;3.30;99.90;;;;;;5153772;27;19955;-50
2023/04/02 01:58:11;;;;;;;;;;;3.30;99.90;;;;;;5149445;27;19907;-49
2023/04/02 02:00:42;;;;;;;;;;;3.20;99.90;;;;;;5154759;27;20001;-50
2023/04/02 02:03:09;;;;;;;;;;;3.20;99.90;;;;;;5153519;27;19919;-48
2023/04/02 02:05:35;;;;;;;;;;;3.20;99.90;;;;;;5154783;27;19934;-50
2023/04/02 02:08:01;;;;;;;;;;;3.10;99.90;;;;;;5154566;27;20384;-51
2023/04/02 02:10:34;;;;;;;;;;;3.10;99.90;;;;;;5153794;27;20015;-46
2023/04/02 02:13:00;;;;;;;;;;;3.00;99.90;;;;;;5154529;27;19949;-47
2023/04/02 02:15:26;;;;;;;;;;;3.00;99.90;;;;;;5154412;27;19950;-48
2023/04/02 02:18:03;;;;;;;;;;;3.00;99.90;;;;;;5153891;27;19911;-50
2023/04/02 02:20:28;;;;;;;;;;;2.90;99.90;;;;;;5154479;27;19907;-48
2023/04/02 02:22:54;;;;;;;;;;;2.90;99.90;;;;;;5154072;27;19907;-50
2023/04/02 02:25:21;;;;;;;;;;;2.90;99.90;;;;;;5153618;27;19918;-50
2023/04/02 02:27:47;;;;;;;;;;;2.80;99.90;;;;;;5154369;27;19911;-52
2023/04/02 02:30:12;;;;;;;;;;;2.80;99.90;;;;;;5153962;27;19914;-52
2023/04/02 02:32:40;;;;;;;;;;;2.80;99.90;;;;;;5144657;27;20425;-48
2023/04/02 02:35:17;;;;;;;;;;;2.70;99.90;;;;;;5133523;28;19964;-48
2023/04/02 02:37:45;;;;;;;;;;;2.70;99.90;;;;;;5133871;27;19915;-48
2023/04/02 02:40:14;;;;;;;;;;;2.70;99.90;;;;;;5137723;27;19907;-49
2023/04/02 02:42:46;;;;;;;;;;;2.70;99.90;;;;;;5137824;27;19907;-49
2023/04/02 02:45:15;;;;;;;;;;;2.60;99.90;;;;;;5137151;27;19921;-48
2023/04/02 02:47:42;;;;;;;;;;;2.60;99.90;;;;;;5137706;27;19918;-48
2023/04/02 02:50:12;;;;;;;;;;;2.50;99.90;;;;;;5137668;27;20000;-48
2023/04/02 02:52:37;;;;;;;;;;;2.50;99.90;;;;;;5136786;27;19914;-48
2023/04/02 02:55:16;;;;;;;;;;;2.50;99.90;;;;;;5137454;27;19911;-49
2023/04/02 02:57:45;;;;;;;;;;;2.50;99.90;;;;;;5137469;27;20006;-49
2023/04/02 03:00:11;;;;;;;;;;;2.50;99.90;;;;;;5136546;27;19976;-52
2023/04/02 03:02:38;;;;;;;;;;;2.50;99.90;;;;;;5137307;27;19995;-48
2023/04/02 03:05:04;;;;;;;;;;;2.60;99.90;;;;;;5137265;27;20460;-47
2023/04/02 03:07:30;;;;;;;;;;;2.60;99.90;;;;;;5136507;27;20006;-49
2023/04/02 03:10:04;;;;;;;;;;;2.60;99.90;;;;;;5137347;27;19918;-48
2023/04/02 03:12:39;;;;;;;;;;;2.70;99.90;;;;;;5136480;27;20423;-50
2023/04/02 03:15:04;;;;;;;;;;;2.60;99.90;;;;;;5137206;27;19908;-50
2023/04/02 03:17:33;;;;;;;;;;;2.70;99.90;;;;;;5137193;27;19957;-48
2023/04/02 03:20:05;;;;;;;;;;;2.70;99.90;;;;;;5136287;27;19907;-48
2023/04/02 03:22:36;;;;;;;;;;;2.70;99.90;;;;;;5137201;27;19968;-48
2023/04/02 03:25:20;;;;;;;;;;;2.80;99.90;;;;;;5137036;27;20262;-50
2023/04/02 03:27:47;;;;;;;;;;;2.80;99.90;;;;;;5136054;27;19945;-51
2023/04/02 03:30:30;;;;;;;;;;;2.80;99.90;;;;;;5136843;27;19918;-51
2023/04/02 03:33:12;;;;;;;;;;;2.80;99.90;;;;;;5136963;27;19907;-47
2023/04/02 03:35:58;;;;;;;;;;;2.80;99.90;;;;;;5136016;27;19914;-50
2023/04/02 03:38:25;;;;;;;;;;;2.80;99.90;;;;;;5136037;27;19968;-51
2023/04/02 03:41:00;;;;;;;;;;;2.80;99.90;;;;;;5135762;27;19921;-47
2023/04/02 03:43:27;;;;;;;;;;;2.80;99.90;;;;;;5136648;27;19908;-51
2023/04/02 03:46:04;;;;;;;;;;;2.80;99.90;;;;;;5136552;27;20358;-51
2023/04/02 03:48:32;;;;;;;;;;;2.80;99.90;;;;;;5135322;27;19915;-51
2023/04/02 03:50:58;;;;;;;;;;;2.80;99.90;;;;;;5135390;27;19996;-48
2023/04/02 03:53:25;;;;;;;;;;;2.80;99.90;;;;;;5136505;27;19912;-48
2023/04/02 03:55:51;;;;;;;;;;;2.80;99.90;;;;;;5138308;27;19918;-49
2023/04/02 03:58:25;;;;;;;;;;;2.70;99.90;;;;;;5145546;27;19930;-49
2023/04/02 04:00:54;;;;;;;;;;;2.80;99.90;;;;;;5135995;27;19956;-47
2023/04/02 04:03:25;;;;;;;;;;;2.80;99.90;;;;;;5135752;27;19914;-49
2023/04/02 04:05:54;;;;;;;;;;;2.70;99.90;;;;;;5136250;27;19907;-52
2023/04/02 04:08:22;;;;;;;;;;;2.70;99.90;;;;;;5136055;27;19923;-51
2023/04/02 04:10:52;;;;;;;;;;;2.70;99.90;;;;;;5135267;27;19918;-49
2023/04/02 04:13:21;;;;;;;;;;;2.70;99.90;;;;;;5135946;27;19907;-49
2023/04/02 04:15:56;;;;;;;;;;;2.70;99.90;;;;;;5135356;27;19915;-48
2023/04/02 04:18:33;;;;;;;;;;;2.70;99.90;;;;;;5135902;27;19915;-49
2023/04/02 04:21:04;;;;;;;;;;;2.70;99.90;;;;;;5136019;27;19907;-51
2023/04/02 04:23:36;;;;;;;;;;;2.60;99.90;;;;;;5134963;27;19912;-50
2023/04/02 04:26:08;;;;;;;;;;;2.60;99.90;;;;;;5135877;27;19918;-47
2023/04/02 04:28:40;;;;;;;;;;;2.60;99.90;;;;;;5135703;27;19961;-49
2023/04/02 04:31:19;;;;;;;;;;;2.60;99.90;;;;;;5142754;27;19952;-48
2023/04/02 04:33:49;;;;;;;;;;;2.60;99.90;;;;;;5156254;27;20384;-51
2023/04/02 04:36:26;;;;;;;;;;;2.50;99.90;;;;;;5156109;27;19914;-50
2023/04/02 04:38:58;;;;;;;;;;;2.50;99.90;;;;;;5155537;27;19911;-48
2023/04/02 04:41:26;;;;;;;;;;;2.40;99.90;;;;;;5155769;27;19975;-50
2023/04/02 04:44:04;;;;;;;;;;;2.40;99.90;;;;;;5155617;27;19915;-49
2023/04/02 04:46:34;;;;;;;;;;;2.30;99.90;;;;;;5156133;27;19958;-48
2023/04/02 04:49:11;;;;;;;;;;;2.30;99.90;;;;;;5155983;27;19915;-51
2023/04/02 04:51:40;;;;;;;;;;;2.30;99.90;;;;;;5154826;27;19915;-51
2023/04/02 04:54:09;;;;;;;;;;;2.30;99.90;;;;;;5155994;27;19911;-52
2023/04/02 04:56:36;;;;;;;;;;;2.30;99.90;;;;;;5155910;27;19907;-51
2023/04/02 04:59:12;;;;;;;;;;;2.30;99.90;;;;;;5155100;27;20087;-49
2023/04/02 05:01:46;;;;;;;;;;;2.30;99.90;;;;;;5153351;27;19923;-51
2023/04/02 05:04:22;;;;;;;;;;;2.30;99.90;;;;;;5155777;27;19958;-50
2023/04/02 05:06:53;;;;;;;;;;;2.30;99.90;;;;;;5155106;27;19908;-51
2023/04/02 05:09:32;;;;;;;;;;;2.20;99.90;;;;;;5155289;27;19980;-48
2023/04/02 05:12:03;;;;;;;;;;;2.20;99.90;;;;;;5155555;27;19907;-47
2023/04/02 05:14:33;;;;;;;;;;;2.20;99.90;;;;;;5155594;27;20005;-49
2023/04/02 05:17:01;;;;;;;;;;;2.10;99.90;;;;;;5155576;27;19990;-49
2023/04/02 05:19:30;;;;;;;;;;;2.10;99.90;;;;;;5154279;27;19918;-49
2023/04/02 05:21:56;;;;;;;;;;;2.00;99.90;;;;;;5155439;27;20392;-48
2023/04/02 05:24:36;;;;;;;;;;;2.00;99.90;;;;;;5136755;27;19907;-50
2023/04/02 05:27:08;;;;;;;;;;;2.00;99.90;;;;;;5150933;27;19923;-51
2023/04/02 05:29:36;;;;;;;;;;;1.90;99.90;;;;;;5155045;27;19975;-50
2023/04/02 05:32:14;;;;;;;;;;;1.90;99.90;;;;;;5154705;27;20001;-52
2023/04/02 05:34:40;;;;;;;;;;;1.80;99.90;;;;;;5152178;27;19959;-46
2023/04/02 05:37:11;;;;;;;;;;;1.80;99.90;;;;;;5154329;27;19997;-49
2023/04/02 05:39:36;;;;;;;;;;;1.80;99.90;;;;;;5155115;27;20001;-48
2023/04/02 05:42:07;;;;;;;;;;;1.80;99.90;;;;;;5154484;27;20391;-50
2023/04/02 05:44:34;;;;;;;;;;;1.80;99.90;;;;;;5155050;27;19911;-50
2023/04/02 05:47:05;;;;;;;;;;;1.70;99.90;;;;;;5152881;27;19933;-51
2023/04/02 05:49:30;;;;;;;;;;;1.80;99.90;;;;;;5144402;27;20506;-50
2023/04/02 05:51:59;;;;;;;;;;;1.80;99.90;;;;;;5149378;27;20028;-50
2023/04/02 05:54:31;;;;;;;;;;;1.80;99.90;;;;;;5151716;27;20171;-47
2023/04/02 05:57:02;;;;;;;;;;;1.80;99.90;;;;;;5141806;27;20025;-48
2023/04/02 05:59:34;;;;;;;;;;;1.80;99.90;;;;;;5133616;27;20289;-48
2023/04/02 06:02:03;;;;;;;;;;;1.80;99.90;;;;;;5140836;27;19926;-48
2023/04/02 06:04:33;;;;;;;;;;;1.80;99.90;;;;;;5147529;27;19907;-49
2023/04/02 06:07:16;;;;;;;;;;;1.80;99.90;;;;;;5133933;27;19918;-51
2023/04/02 06:09:50;;;;;;;;;;;1.90;99.90;;;;;;5133269;27;19919;-48
2023/04/02 06:12:39;;;;;;;;;;;1.80;99.90;;;;;;5133455;27;20005;-50
2023/04/02 06:15:05;;;;;;;;;;;1.90;99.90;;;;;;5133777;27;20002;-48
2023/04/02 06:17:41;;;;;;;;;;;1.90;99.90;;;;;;5143815;27;20419;-48
2023/04/02 06:20:12;;;;;;;;;;;1.90;99.90;;;;;;5150088;27;19911;-49
2023/04/02 06:22:39;;;;;;;;;;;2.00;99.90;;;;;;5153119;27;19945;-49
2023/04/02 06:25:08;;;;;;;;;;;2.10;99.90;;;;;;5151102;27;19907;-49
2023/04/02 06:27:34;;;;;;;;;;;2.20;99.90;;;;;;5150642;27;19911;-49
2023/04/02 06:30:01;;;;;;;;;;;2.20;99.90;;;;;;5152822;27;19914;-49
2023/04/02 06:32:26;;;;;;;;;;;2.30;99.90;;;;;;5153753;27;20430;-50
2023/04/02 06:34:52;;;;;;;;;;;2.30;99.90;;;;;;5153624;27;19911;-49
2023/04/02 06:37:24;;;;;;;;;;;2.40;99.90;;;;;;5151862;27;20389;-48
2023/04/02 06:39:49;;;;;;;;;;;2.40;99.90;;;;;;5154199;27;19907;-48
2023/04/02 06:42:21;;;;;;;;;;;2.50;99.90;;;;;;5154530;27;19968;-52
2023/04/02 06:44:46;;;;;;;;;;;2.60;99.90;;;;;;5146041;27;19921;-49
2023/04/02 06:47:18;;;;;;;;;;;2.60;99.90;;;;;;5135377;27;19994;-47
2023/04/02 06:49:50;;;;;;;;;;;2.70;99.90;;;;;;5135617;27;19915;-49
2023/04/02 06:52:22;;;;;;;;;;;2.80;99.90;;;;;;5145907;27;19911;-49
2023/04/02 06:54:47;;;;;;;;;;;2.80;99.90;;;;;;5142603;27;19922;-50
2023/04/02 06:57:13;;;;;;;;;;;2.80;99.90;;;;;;5142555;27;20322;-46
2023/04/02 06:59:38;;;;;;;;;;;2.80;99.90;;;;;;5144973;27;19907;-48
2023/04/02 07:02:12;;;;;;;;;;;2.90;99.90;;;;;;5133050;27;20032;-51
2023/04/02 07:04:37;;;;;;;;;;;3.00;99.90;;;;;;5132661;27;19912;-46
2023/04/02 07:07:03;;;;;;;;;;;3.10;99.90;;;;;;5133230;27;19956;-49
2023/04/02 07:09:28;;;;;;;;;;;3.20;99.90;;;;;;5133179;27;19919;-48
2023/04/02 07:11:54;;;;;;;;;;;3.20;99.90;;;;;;5132243;27;19916;-48
2023/04/02 07:14:19;;;;;;;;;;;3.30;99.90;;;;;;5133337;28;20396;-50
2023/04/02 07:16:45;;;;;;;;;;;3.40;99.90;;;;;;5133141;27;19954;-50
2023/04/02 07:19:18;;;;;;;;;;;3.50;99.90;;;;;;5139565;27;19912;-49
2023/04/02 07:21:43;;;;;;;;;;;3.50;99.90;;;;;;5153934;27;19999;-50
2023/04/02 07:24:09;;;;;;;;;;;3.60;99.90;;;;;;5155294;27;19946;-49
2023/04/02 07:26:34;;;;;;;;;;;3.70;99.90;;;;;;5137576;27;19908;-48
2023/04/02 07:29:00;;;;;;;;;;;3.80;99.90;;;;;;5136916;27;19969;-49
2023/04/02 07:31:27;;;;;;;;;;;3.90;99.90;;;;;;5136873;27;20334;-48
2023/04/02 07:33:54;;;;;;;;;;;3.90;99.90;;;;;;5135912;27;19911;-49
2023/04/02 07:36:21;;;;;;;;;;;4.00;99.90;;;;;;5145508;27;20277;-45
2023/04/02 07:38:46;;;;;;;;;;;4.10;99.90;;;;;;5142420;27;20396;-48
2023/04/02 07:41:12;;;;;;;;;;;4.10;99.90;;;;;;5141425;27;19915;-50
2023/04/02 07:43:39;;;;;;;;;;;4.20;99.90;;;;;;5148026;27;19998;-50
2023/04/02 07:46:05;;;;;;;;;;;4.30;99.90;;;;;;5144052;27;19918;-50
2023/04/02 07:48:30;;;;;;;;;;;4.30;99.90;;;;;;5138813;27;19923;-48
2023/04/02 07:50:56;;;;;;;;;;;4.50;99.90;;;;;;5140156;27;19914;-48
2023/04/02 07:53:28;;;;;;;;;;;4.60;99.90;;;;;;5153752;27;20357;-50
2023/04/02 07:55:54;;;;;;;;;;;4.70;99.90;;;;;;5154689;27;19907;-49
2023/04/02 07:58:20;;;;;;;;;;;4.80;99.90;;;;;;5136372;27;19960;-51
2023/04/02 08:00:45;;;;;;;;;;;4.90;99.90;;;;;;5136046;27;19990;-49
2023/04/02 08:03:11;;;;;;;;;;;4.90;99.90;;;;;;5144331;27;20384;-47
2023/04/02 08:05:37;;;;;;;;;;;4.90;99.90;;;;;;5136419;27;19915;-48
2023/04/02 08:08:02;;;;;;;;;;;4.90;99.90;;;;;;5135571;27;20438;-48
2023/04/02 08:10:28;;;;;;;;;;;4.90;99.90;;;;;;5142666;27;19912;-46
2023/04/02 08:12:53;;;;;;;;;;;5.10;99.90;;;;;;5151155;27;20282;-49
2023/04/02 08:15:19;;;;;;;;;;;5.10;99.90;;;;;;5135313;27;20006;-48
2023/04/02 08:17:45;;;;;;;;;;;5.20;99.90;;;;;;5136037;27;19960;-48
2023/04/02 08:20:14;;;;;;;;;;;5.40;99.90;;;;;;5135885;27;19957;-47
2023/04/02 08:22:39;;;;;;;;;;;5.60;99.90;;;;;;5134959;27;19964;-50
2023/04/02 08:25:05;;;;;;;;;;;5.60;99.90;;;;;;5143633;27;19911;-48
2023/04/02 08:27:30;;;;;;;;;;;5.60;99.90;;;;;;5148256;27;20002;-52
2023/04/02 08:29:56;;;;;;;;;;;5.50;99.90;;;;;;5139490;27;20270;-50
2023/04/02 08:32:23;;;;;;;;;;;5.40;99.90;;;;;;5140068;27;19960;-50
2023/04/02 08:34:48;;;;;;;;;;;5.30;99.90;;;;;;5137559;27;19911;-51
2023/04/02 08:37:14;;;;;;;;;;;5.40;99.90;;;;;;5152804;27;19918;-48
2023/04/02 08:39:40;;;;;;;;;;;5.50;99.90;;;;;;5139446;27;19926;-49
2023/04/02 08:42:14;;;;;;;;;;;5.60;99.90;;;;;;5142572;27;19940;-49
2023/04/02 08:45:05;;;;;;;;;;;5.70;99.90;;;;;;5155565;27;19954;-51
2023/04/02 08:47:35;;;;;;;;;;;5.80;99.90;;;;;;5153331;27;19944;-49
2023/04/02 08:50:24;;;;;;;;;;;5.90;99.90;;;;;;5155503;27;19949;-50
2023/04/02 08:52:50;;;;;;;;;;;6.10;99.90;;;;;;5142250;27;19946;-49
2023/04/02 08:55:18;;;;;;;;;;;6.20;99.90;;;;;;5155851;27;19908;-51
2023/04/02 08:57:44;;;;;;;;;;;6.30;99.90;;;;;;5155317;27;20266;-50
2023/04/02 09:00:22;;;;;;;;;;;6.20;99.90;;;;;;5155713;27;19907;-52
2023/04/02 09:03:05;;;;;;;;;;;6.00;99.90;;;;;;5155517;27;19919;-51
2023/04/02 09:05:32;;;;;;;;;;;6.00;99.90;;;;;;5155035;27;20157;-49
2023/04/02 09:08:00;;;;;;;;;;;6.00;99.90;;;;;;5155594;27;19996;-50
2023/04/02 09:10:34;;;;;;;;;;;6.10;99.90;;;;;;5137208;27;20269;-51
2023/04/02 09:13:01;;;;;;;;;;;6.20;99.90;;;;;;5155033;27;19907;-49
2023/04/02 09:15:32;;;;;;;;;;;6.30;99.90;;;;;;5155701;27;19959;-49
2023/04/02 09:18:12;;;;;;;;;;;6.40;99.90;;;;;;5155608;27;19907;-51
2023/04/02 09:20:39;;;;;;;;;;;6.40;99.90;;;;;;5155918;27;19938;-50
2023/04/02 09:23:08;;;;;;;;;;;6.40;99.90;;;;;;5156147;27;20356;-50
2023/04/02 09:25:34;;;;;;;;;;;6.40;99.90;;;;;;5155448;27;20287;-50
2023/04/02 09:28:00;;;;;;;;;;;6.40;99.90;;;;;;5154788;27;20056;-52
2023/04/02 09:30:34;;;;;;;;;;;6.50;99.90;;;;;;5155482;27;19911;-49
2023/04/02 09:33:01;;;;;;;;;;;6.60;99.90;;;;;;5151771;27;19918;-52
2023/04/02 09:35:28;;;;;;;;;;;6.80;99.90;;;;;;5136453;27;20360;-50
2023/04/02 09:38:06;;;;;;;;;;;6.90;99.90;;;;;;5149610;27;19938;-51
2023/04/02 09:40:53;;;;;;;;;;;7.00;99.90;;;;;;5140852;27;19911;-51
2023/04/02 09:43:19;;;;;;;;;;;7.10;99.90;;;;;;5109637;27;20052;-47
2023/04/02 09:46:06;;;;;;;;;;;7.20;99.90;;;;;;5135101;27;19999;-49
2023/04/02 09:48:42;;;;;;;;;;;7.30;99.90;;;;;;5123162;27;19923;-50
2023/04/02 09:51:11;;;;;;;;;;;7.50;99.90;;;;;;5143497;27;19911;-51
2023/04/02 09:53:40;;;;;;;;;;;7.70;99.90;;;;;;5154865;27;20014;-50
2023/04/02 09:56:07;;;;;;;;;;;7.80;99.90;;;;;;5155196;27;19907;-49
2023/04/02 09:58:33;;;;;;;;;;;7.80;99.90;;;;;;5153239;27;19915;-52
2023/04/02 10:00:59;;;;;;;;;;;7.70;99.90;;;;;;5132777;27;20011;-50
2023/04/02 10:03:28;;;;;;;;;;;7.90;99.90;;;;;;5147602;27;19914;-50
2023/04/02 10:06:04;;;;;;;;;;;8.00;99.90;;;;;;5145806;27;19908;-50
2023/04/02 10:08:30;;;;;;;;;;;8.00;99.90;;;;;;5133961;27;19923;-49
2023/04/02 10:10:57;;;;;;;;;;;8.00;99.90;;;;;;5152865;27;20010;-49
2023/04/02 10:13:49;;;;;;;;;;;8.10;99.90;;;;;;5154531;27;19911;-51
2023/04/02 10:16:31;;;;;;;;;;;8.10;99.90;;;;;;5113436;27;19907;-52
2023/04/02 10:19:00;;;;;;;;;;;8.20;99.90;;;;;;5139419;27;19915;-51
2023/04/02 10:21:27;;;;;;;;;;;8.30;99.90;;;;;;5136212;27;19951;-53
2023/04/02 10:23:54;;;;;;;;;;;8.30;99.90;;;;;;5145180;27;19915;-52
2023/04/02 10:26:19;;;;;;;;;;;8.40;99.90;;;;;;5139568;27;19911;-52
2023/04/02 10:28:51;;;;;;;;;;;8.50;99.90;;;;;;5138165;27;19919;-49
2023/04/02 10:31:28;;;;;;;;;;;8.40;95.80;;;;;;5140047;27;19954;-51
2023/04/02 10:34:08;;;;;;;;;;;8.50;99.90;;;;;;5134774;27;19954;-49
2023/04/02 10:36:51;;;;;;;;;;;8.70;99.90;;;;;;5147181;27;20293;-50
2023/04/02 10:39:30;;;;;;;;;;;8.70;99.90;;;;;;5150085;27;19947;-51
2023/04/02 10:42:02;;;;;;;;;;;8.90;99.90;;;;;;5143896;27;19911;-50
2023/04/02 10:44:32;;;;;;;;;;;9.00;99.90;;;;;;5147603;27;19911;-51
2023/04/02 10:47:04;;;;;;;;;;;9.00;99.90;;;;;;5152040;27;19920;-51
2023/04/02 10:49:30;;;;;;;;;;;9.20;99.90;;;;;;5149117;27;19920;-51
2023/04/02 10:51:58;;;;;;;;;;;9.30;99.90;;;;;;5136092;27;19934;-52
2023/04/02 10:54:30;;;;;;;;;;;9.40;98.90;;;;;;5149503;27;19911;-48
2023/04/02 10:56:58;;;;;;;;;;;9.40;94.00;;;;;;5154191;27;20266;-50
2023/04/02 10:59:26;;;;;;;;;;;9.40;99.90;;;;;;5156508;27;19907;-48
2023/04/02 11:01:53;;;;;;;;;;;9.60;99.90;;;;;;5158731;27;19925;-51
2023/04/02 11:04:26;;;;;;;;;;;9.70;98.50;;;;;;5157802;27;19915;-50
2023/04/02 11:06:57;;;;;;;;;;;9.80;95.80;;;;;;5158868;27;19913;-54
2023/04/02 11:09:25;;;;;;;;;;;9.80;92.80;;;;;;5157941;27;19967;-53
2023/04/02 11:11:53;;;;;;;;;;;9.90;97.50;;;;;;5158199;27;19913;-52
2023/04/02 11:14:27;;;;;;;;;;;9.80;93.30;;;;;;5158378;27;19968;-50
2023/04/02 11:16:54;;;;;;;;;;;9.90;97.20;;;;;;5158418;27;19911;-48
2023/04/02 11:19:21;;;;;;;;;;;10.00;97.70;;;;;;5155848;27;19911;-49
2023/04/02 11:21:50;;;;;;;;;;;10.00;86.40;;;;;;5158536;27;19930;-51
2023/04/02 11:24:35;;;;;;;;;;;10.10;95.30;;;;;;5157815;27;19908;-51
2023/04/02 11:27:10;;;;;;;;;;;10.30;94.20;;;;;;5157620;27;19950;-52
2023/04/02 11:29:40;;;;;;;;;;;10.20;88.20;;;;;;5156358;27;19960;-50
2023/04/02 11:32:13;;;;;;;;;;;10.20;90.40;;;;;;5137249;27;19915;-52
2023/04/02 11:34:48;;;;;;;;;;;10.30;91.30;;;;;;5155538;27;19913;-52
2023/04/02 11:37:28;;;;;;;;;;;10.30;86.10;;;;;;5144988;27;20365;-52
2023/04/02 11:39:56;;;;;;;;;;;10.50;95.60;;;;;;5136216;27;19934;-51
2023/04/02 11:42:23;;;;;;;;;;;10.20;88.30;;;;;;5137011;27;20350;-52
2023/04/02 11:44:49;;;;;;;;;;;10.20;93.60;;;;;;5136453;27;20281;-52
2023/04/02 11:47:19;;;;;;;;;;;10.20;87.40;;;;;;5136497;27;19990;-52
2023/04/02 11:49:54;;;;;;;;;;;10.20;94.10;;;;;;5153118;27;19915;-52
2023/04/02 11:52:21;;;;;;;;;;;10.00;83.20;;;;;;5144401;27;20077;-50
2023/04/02 11:54:54;;;;;;;;;;;10.00;86.80;;;;;;5138064;27;19911;-52
2023/04/02 11:57:19;;;;;;;;;;;10.20;94.80;;;;;;5147816;27;19922;-53
2023/04/02 12:00:07;;;;;;;;;;;10.40;83.40;;;;;;5136593;27;19911;-52
2023/04/02 12:03:02;;;;;;;;;;;10.40;87.40;;;;;;5136141;27;19924;-51
2023/04/02 12:05:36;;;;;;;;;;;10.50;92.90;;;;;;5152873;27;19907;-52
2023/04/02 12:08:08;;;;;;;;;;;10.50;87.70;;;;;;5147701;27;20018;-51
2023/04/02 12:10:51;;;;;;;;;;;10.40;84.20;;;;;;5145236;27;20021;-52
2023/04/02 12:13:40;;;;;;;;;;;10.60;91.80;;;;;;5138402;27;20358;-52
2023/04/02 12:16:06;;;;;;;;;;;10.80;88.90;;;;;;5137864;27;19964;-50
2023/04/02 12:18:32;;;;;;;;;;;11.10;94.80;;;;;;5146665;27;19917;-53
2023/04/02 12:20:57;;;;;;;;;;;11.30;92.10;;;;;;5152346;27;19911;-53
2023/04/02 12:23:30;;;;;;;;;;;11.30;86.30;;;;;;5134995;27;20927;-53
2023/04/02 12:26:00;;;;;;;;;;;11.50;91.30;;;;;;5135789;27;19998;-51
2023/04/02 12:28:32;;;;;;;;;;;11.60;86.70;;;;;;5134902;27;20014;-50
2023/04/02 12:31:10;;;;;;;;;;;11.60;83.90;;;;;;5135711;27;20277;-51
2023/04/02 12:33:37;;;;;;;;;;;11.90;92.00;;;;;;5135844;27;20397;-51
2023/04/02 12:36:05;;;;;;;;;;;12.00;85.60;;;;;;5134956;27;19912;-53
2023/04/02 12:38:37;;;;;;;;;;;11.90;77.80;;;;;;5136012;27;19965;-53
2023/04/02 12:41:04;;;;;;;;;;;11.60;73.70;;;;;;5136099;27;19912;-51
2023/04/02 12:43:31;;;;;;;;;;;11.40;71.50;;;;;;5135447;27;20258;-54
2023/04/02 12:45:58;;;;;;;;;;;11.40;86.10;;;;;;5135976;27;19908;-51
2023/04/02 12:48:24;;;;;;;;;;;11.40;83.10;;;;;;5135752;27;20440;-53
2023/04/02 12:50:50;;;;;;;;;;;11.60;84.50;;;;;;5135423;27;19914;-55
2023/04/02 12:53:19;;;;;;;;;;;11.80;83.80;;;;;;5135898;27;19908;-53
2023/04/02 12:55:51;;;;;;;;;;;12.00;81.50;;;;;;5135885;27;19985;-52
2023/04/02 12:58:22;;;;;;;;;;;11.80;72.10;;;;;;5135252;27;20351;-53
2023/04/02 13:00:48;;;;;;;;;;;11.80;77.80;;;;;;5135451;27;19908;-52
2023/04/02 13:03:16;;;;;;;;;;;11.90;78.20;;;;;;5141475;27;19955;-57
2023/04/02 13:05:49;;;;;;;;;;;11.80;80.00;;;;;;5156016;27;19989;-53
2023/04/02 13:08:16;;;;;;;;;;;11.70;78.80;;;;;;5156091;27;19911;-52
2023/04/02 13:10:42;;;;;;;;;;;11.90;73.70;;;;;;5155619;27;19907;-52
2023/04/02 13:13:15;;;;;;;;;;;12.10;76.60;;;;;;5155974;27;19983;-53
2023/04/02 13:15:42;;;;;;;;;;;12.20;71.00;;;;;;5140686;27;19911;-52
2023/04/02 13:18:17;;;;;;;;;;;12.50;74.10;;;;;;5134525;27;20396;-53
2023/04/02 13:20:54;;;;;;;;;;;12.80;83.80;;;;;;5135088;27;19956;-51
2023/04/02 13:23:26;;;;;;;;;;;12.50;73.10;;;;;;5134494;27;19911;-52
2023/04/02 13:25:52;;;;;;;;;;;12.20;71.10;;;;;;5134408;27;19916;-53
2023/04/02 13:28:18;;;;;;;;;;;12.40;74.70;;;;;;5135325;27;19973;-51
2023/04/02 13:30:43;;;;;;;;;;;13.00;78.20;;;;;;5143540;27;19923;-52
2023/04/02 13:33:09;;;;;;;;;;;13.20;69.20;;;;;;5141871;27;19919;-52
2023/04/02 13:35:34;;;;;;;;;;;13.20;69.60;;;;;;5149507;27;19907;-50
2023/04/02 13:38:01;;;;;;;;;;;13.00;67.90;;;;;;5142254;27;19945;-52
2023/04/02 13:40:27;;;;;;;;;;;13.30;88.30;;;;;;5154701;27;19913;-50
2023/04/02 13:42:53;;;;;;;;;;;13.30;90.80;;;;;;5155187;27;19998;-51
2023/04/02 13:45:29;;;;;;;;;;;13.40;70.70;;;;;;5154981;27;19911;-51
2023/04/02 13:48:00;;;;;;;;;;;13.60;68.20;;;;;;5138938;27;19907;-52
2023/04/02 13:50:27;;;;;;;;;;;13.20;66.50;;;;;;5134981;27;20003;-52
2023/04/02 13:52:55;;;;;;;;;;;13.10;73.20;;;;;;5134370;27;19966;-52
2023/04/02 13:55:22;;;;;;;;;;;12.90;67.50;;;;;;5151980;27;20353;-54
2023/04/02 13:57:48;;;;;;;;;;;13.10;71.00;;;;;;5155446;27;19914;-52
2023/04/02 14:00:16;;;;;;;;;;;13.60;68.90;;;;;;5154705;27;19907;-52
2023/04/02 14:02:45;;;;;;;;;;;13.70;70.90;;;;;;5155310;27;19961;-51
2023/04/02 14:05:10;;;;;;;;;;;13.50;66.50;;;;;;5139349;27;19912;-50
2023/04/02 14:07:57;;;;;;;;;;;13.40;64.80;;;;;;5134282;27;19907;-53
2023/04/02 14:10:41;;;;;;;;;;;13.00;62.30;;;;;;5134909;27;19973;-50
2023/04/02 14:13:08;;;;;;;;;;;12.80;65.50;;;;;;5145588;27;19945;-52
2023/04/02 14:15:36;;;;;;;;;;;13.00;65.50;;;;;;5154452;27;19960;-53
2023/04/02 14:18:10;;;;;;;;;;;13.40;64.00;;;;;;5155259;27;19907;-52
2023/04/02 14:20:45;;;;;;;;;;;14.10;60.50;;;;;;5154249;27;19911;-49
2023/04/02 14:23:18;;;;;;;;;;;13.90;58.50;;;;;;5145035;27;19972;-51
2023/04/02 14:25:53;;;;;;;;;;;13.70;60.90;;;;;;5144455;27;19919;-51
2023/04/02 14:28:38;;;;;;;;;;;14.00;63.50;;;;;;5150900;27;19919;-52
2023/04/02 14:31:17;;;;;;;;;;;14.50;62.60;;;;;;5153166;27;19921;-51
2023/04/02 14:33:45;;;;;;;;;;;14.80;56.00;;;;;;5142391;27;19918;-52
2023/04/02 14:36:14;;;;;;;;;;;15.70;55.90;;;;;;5132682;27;19912;-51
2023/04/02 14:38:50;;;;;;;;;;;15.90;57.20;;;;;;5133578;28;19947;-50
2023/04/02 14:41:23;;;;;;;;;;;15.90;55.00;;;;;;5133450;28;20425;-52
2023/04/02 14:44:00;;;;;;;;;;;15.10;53.90;;;;;;5149939;27;20353;-53
2023/04/02 14:46:27;;;;;;;;;;;14.60;55.10;;;;;;5154475;27;19907;-51